Time;durP1;ratioP1;P1;durP2;ratioP2;P2;SDS_P1;SDS_P2;PMS_P1;PMS_P2;Temp;Humidity;BMP_temperature;BMP_pressure;BME280_temperature;BME280_humidity;BME280_pressure;Samples;Min_cycle;Max_cycle;Signal;HPM_P1;HPM_P2
2022/08/08 00:00:23;;;;;;;2.00;1.80;;;14.80;99.90;;;;;;7384157;19;20316;-74
2022/08/08 00:02:56;;;;;;;1.90;1.70;;;14.70;99.90;;;;;;7386170;19;20355;-74
2022/08/08 00:05:37;;;;;;;1.77;1.67;;;14.70;99.90;;;;;;7383020;19;20328;-74
2022/08/08 00:08:18;;;;;;;2.10;1.90;;;14.70;99.90;;;;;;7384547;19;21242;-74
2022/08/08 00:11:05;;;;;;;1.87;1.77;;;14.60;99.90;;;;;;7384262;19;20297;-74
2022/08/08 00:13:32;;;;;;;2.17;1.88;;;14.60;99.90;;;;;;7278375;19;2019769;-74
2022/08/08 00:16:06;;;;;;;1.90;1.80;;;14.50;99.90;;;;;;7383813;19;20344;-74
2022/08/08 00:18:56;;;;;;;1.90;1.80;;;14.50;99.90;;;;;;7383605;19;20324;-74
2022/08/08 00:21:26;;;;;;;2.03;1.73;;;14.50;99.90;;;;;;7284348;19;2004321;-74
2022/08/08 00:23:55;;;;;;;2.15;1.95;;;14.50;99.90;;;;;;7381925;19;20345;-74
2022/08/08 00:26:38;;;;;;;1.73;1.63;;;14.50;99.90;;;;;;7384920;19;20674;-74
2022/08/08 00:29:24;;;;;;;2.42;1.63;;;14.50;99.90;;;;;;7384078;19;20726;-74
2022/08/08 00:31:52;;;;;;;2.15;1.77;;;14.40;99.90;;;;;;7280833;19;2019256;-74
2022/08/08 00:37:51;;;;;;;1.73;1.63;;;14.30;99.90;;;;;;7280510;19;2004334;-74
2022/08/08 00:40:29;;;;;;;2.35;1.88;;;14.20;99.90;;;;;;7282774;19;2004513;-74
2022/08/08 00:43:27;;;;;;;1.88;1.77;;;14.10;99.90;;;;;;7382625;19;20869;-74
2022/08/08 00:46:14;;;;;;;2.08;1.88;;;14.10;99.90;;;;;;7280077;19;2004259;-74
2022/08/08 00:48:55;;;;;;;1.70;1.60;;;14.00;99.90;;;;;;7381653;19;20327;-74
2022/08/08 00:52:01;;;;;;;1.70;1.60;;;13.90;99.90;;;;;;7280734;19;2004368;-74
2022/08/08 00:54:32;;;;;;;2.10;1.98;;;13.90;99.90;;;;;;7277651;19;2006056;-74
2022/08/08 00:57:30;;;;;;;2.80;2.00;;;13.90;99.90;;;;;;7383544;19;20336;-74
2022/08/08 01:00:06;;;;;;;1.93;1.83;;;13.80;99.90;;;;;;7281213;19;2004738;-74
2022/08/08 01:02:40;;;;;;;2.60;1.67;;;13.80;99.90;;;;;;7381860;19;20344;-74
2022/08/08 01:05:52;;;;;;;2.30;2.10;;;13.70;99.90;;;;;;7381247;19;20321;-74
2022/08/08 01:08:38;;;;;;;2.17;1.90;;;13.70;99.90;;;;;;7177724;19;2004466;-73
2022/08/08 01:11:34;;;;;;;1.95;1.77;;;13.60;99.90;;;;;;7381818;19;20345;-73
2022/08/08 01:14:40;;;;;;;2.08;1.90;;;13.60;99.90;;;;;;7280076;19;2004160;-73
2022/08/08 01:17:39;;;;;;;1.85;1.75;;;13.50;99.90;;;;;;7279718;19;2004738;-73
2022/08/08 01:20:25;;;;;;;2.20;1.90;;;13.50;99.90;;;;;;7280938;19;2004355;-72
2022/08/08 01:23:08;;;;;;;2.00;1.90;;;13.50;99.90;;;;;;7281277;19;2004457;-71
2022/08/08 01:25:56;;;;;;;1.80;1.70;;;13.50;99.90;;;;;;7381659;19;20313;-72
2022/08/08 01:28:50;;;;;;;1.80;1.70;;;13.40;99.90;;;;;;7280745;19;2004546;-73
2022/08/08 01:31:35;;;;;;;2.03;1.90;;;13.40;99.90;;;;;;7278958;19;2004511;-72
2022/08/08 01:34:12;;;;;;;2.15;1.80;;;13.40;99.90;;;;;;7380434;19;20349;-72
2022/08/08 01:36:56;;;;;;;2.10;2.00;;;13.40;99.90;;;;;;7380857;19;20289;-72
2022/08/08 01:39:29;;;;;;;2.03;1.90;;;13.40;99.90;;;;;;7279740;19;2004333;-73
2022/08/08 01:42:09;;;;;;;2.22;1.75;;;13.30;99.90;;;;;;7381053;19;20337;-72
2022/08/08 01:45:01;;;;;;;2.03;1.73;;;13.30;99.90;;;;;;7378940;19;20743;-72
2022/08/08 01:47:55;;;;;;;1.77;1.67;;;13.30;99.90;;;;;;7278979;19;2004542;-72
2022/08/08 01:50:58;;;;;;;1.88;1.77;;;13.30;99.90;;;;;;7278117;19;2004383;-72
2022/08/08 01:53:43;;;;;;;1.90;1.80;;;13.20;99.90;;;;;;7277698;19;2004544;-72
2022/08/08 01:56:19;;;;;;;2.10;1.90;;;13.20;99.90;;;;;;7379949;19;20312;-72
2022/08/08 01:58:56;;;;;;;2.80;2.28;;;13.20;99.90;;;;;;7277293;19;2004473;-72
2022/08/08 02:01:57;;;;;;;2.55;2.35;;;13.10;99.90;;;;;;7380916;19;20840;-72
2022/08/08 02:04:31;;;;;;;2.00;1.85;;;12.90;99.90;;;;;;7278062;19;2004380;-72
2022/08/08 02:07:11;;;;;;;1.90;1.80;;;12.90;99.90;;;;;;7382594;19;20341;-73
2022/08/08 02:10:14;;;;;;;2.20;2.10;;;12.90;99.90;;;;;;7381441;19;20316;-72
2022/08/08 02:12:56;;;;;;;2.53;2.33;;;12.90;99.90;;;;;;7277763;19;2004550;-72
2022/08/08 02:15:44;;;;;;;1.92;1.83;;;12.80;99.90;;;;;;7277384;19;2004422;-73
2022/08/08 02:18:31;;;;;;;2.30;2.10;;;12.70;99.90;;;;;;7380819;19;20320;-72
2022/08/08 02:24:19;;;;;;;2.28;2.13;;;12.70;99.90;;;;;;7276641;19;2004347;-72
2022/08/08 02:26:50;;;;;;;2.10;1.80;;;12.70;99.90;;;;;;7379933;19;20786;-73
2022/08/08 02:29:35;;;;;;;1.90;1.80;;;12.60;99.90;;;;;;7277959;19;2004425;-73
2022/08/08 02:32:12;;;;;;;2.20;2.10;;;12.70;99.90;;;;;;7378912;19;21299;-72
2022/08/08 02:35:00;;;;;;;1.90;1.80;;;12.70;99.90;;;;;;7379486;19;20921;-72
2022/08/08 02:37:58;;;;;;;2.03;1.92;;;12.60;99.90;;;;;;7277180;19;2004392;-72
2022/08/08 02:40:48;;;;;;;2.03;1.92;;;12.60;99.90;;;;;;7277375;19;2004671;-72
2022/08/08 02:43:32;;;;;;;2.00;1.90;;;12.60;99.90;;;;;;7275922;19;2004443;-72
2022/08/08 02:45:58;;;;;;;2.22;2.03;;;12.60;99.90;;;;;;7380212;19;20354;-72
2022/08/08 02:49:04;;;;;;;1.90;1.80;;;12.50;99.90;;;;;;7378827;19;20336;-72
2022/08/08 02:51:59;;;;;;;2.00;1.90;;;12.40;99.90;;;;;;7278309;19;2004212;-71
2022/08/08 02:55:13;;;;;;;2.60;2.40;;;12.30;99.90;;;;;;7275287;19;2004517;-73
2022/08/08 02:58:17;;;;;;;2.13;2.03;;;12.40;99.90;;;;;;7276640;19;2004284;-74
2022/08/08 03:00:46;;;;;;;2.50;2.30;;;12.30;99.90;;;;;;7175346;19;2005985;-72
2022/08/08 03:03:49;;;;;;;2.30;2.10;;;12.30;99.90;;;;;;7367319;19;20297;-72
2022/08/08 03:06:33;;;;;;;2.30;2.10;;;12.30;99.90;;;;;;7175887;19;2004698;-72
2022/08/08 03:09:18;;;;;;;2.25;2.05;;;12.10;99.90;;;;;;7279167;19;2004507;-71
2022/08/08 03:12:11;;;;;;;2.47;2.28;;;12.20;99.90;;;;;;7386997;19;20332;-72
2022/08/08 03:14:54;;;;;;;2.45;2.25;;;12.20;99.90;;;;;;7281924;19;2006473;-72
2022/08/08 03:17:40;;;;;;;2.30;2.10;;;12.10;99.90;;;;;;7283705;19;2004387;-72
2022/08/08 03:20:49;;;;;;;2.17;1.98;;;12.10;99.90;;;;;;7360920;19;20449;-72
2022/08/08 03:23:19;;;;;;;3.60;2.23;;;12.00;99.90;;;;;;7176931;19;2004625;-71
2022/08/08 03:25:45;;;;;;;2.88;2.35;;;12.00;99.90;;;;;;7382216;19;20309;-71
2022/08/08 03:28:24;;;;;;;2.60;2.40;;;12.00;99.90;;;;;;7385772;19;20387;-72
2022/08/08 03:30:50;;;;;;;2.80;2.20;;;12.00;99.90;;;;;;7283319;19;2004576;-71
2022/08/08 03:33:17;;;;;;;2.60;2.40;;;11.90;99.90;;;;;;7383617;19;20428;-71
2022/08/08 03:35:43;;;;;;;4.20;2.57;;;11.90;99.90;;;;;;7382799;19;20383;-72
2022/08/08 03:38:09;;;;;;;2.00;1.90;;;11.90;99.90;;;;;;7385197;19;20320;-72
2022/08/08 03:40:35;;;;;;;2.33;2.20;;;11.80;99.90;;;;;;7383380;19;20408;-72
2022/08/08 03:43:05;;;;;;;2.50;2.30;;;11.70;99.90;;;;;;7384865;19;21173;-72
2022/08/08 03:45:31;;;;;;;2.20;2.10;;;11.70;99.90;;;;;;7385485;19;20352;-70
2022/08/08 03:48:07;;;;;;;2.50;2.30;;;11.70;99.90;;;;;;7385811;19;20565;-72
2022/08/08 03:50:40;;;;;;;2.07;1.97;;;11.60;99.90;;;;;;7385274;19;20822;-71
2022/08/08 03:53:08;;;;;;;2.90;2.30;;;11.60;99.90;;;;;;7384727;19;20325;-72
2022/08/08 03:55:37;;;;;;;2.63;1.97;;;11.60;99.90;;;;;;7383870;19;20367;-71
2022/08/08 03:58:05;;;;;;;2.20;2.00;;;11.60;99.90;;;;;;7385194;19;20340;-71
2022/08/08 04:00:30;;;;;;;2.40;2.20;;;11.60;99.90;;;;;;7383568;19;20321;-72
2022/08/08 04:03:06;;;;;;;1.92;1.83;;;11.60;99.90;;;;;;7383022;19;20344;-70
2022/08/08 04:05:33;;;;;;;2.58;2.38;;;11.60;99.90;;;;;;7383404;19;20308;-71
2022/08/08 04:08:04;;;;;;;2.47;2.20;;;11.60;99.90;;;;;;7382756;19;20708;-72
2022/08/08 04:10:31;;;;;;;2.67;2.40;;;11.60;99.90;;;;;;7383527;19;20333;-72
2022/08/08 04:12:56;;;;;;;2.50;2.30;;;11.60;99.90;;;;;;7383771;19;20419;-72
2022/08/08 04:15:22;;;;;;;2.13;2.03;;;11.60;99.90;;;;;;7384985;19;20308;-72
2022/08/08 04:17:48;;;;;;;2.33;2.20;;;11.70;99.90;;;;;;7385497;19;20671;-72
2022/08/08 04:20:13;;;;;;;2.70;2.50;;;11.70;99.90;;;;;;7383154;19;20308;-72
2022/08/08 04:22:39;;;;;;;2.40;2.20;;;11.70;99.90;;;;;;7383720;19;20296;-72
2022/08/08 04:25:07;;;;;;;2.40;2.20;;;11.70;99.90;;;;;;7385243;19;20297;-73
2022/08/08 04:27:34;;;;;;;2.70;2.50;;;11.70;99.90;;;;;;7383899;19;20336;-72
2022/08/08 04:30:01;;;;;;;2.50;2.30;;;11.80;99.90;;;;;;7383384;19;20340;-72
2022/08/08 04:32:27;;;;;;;2.30;2.20;;;11.80;99.90;;;;;;7383264;19;20669;-72
2022/08/08 04:34:52;;;;;;;2.30;2.10;;;11.80;99.90;;;;;;7384332;19;21304;-72
2022/08/08 04:37:18;;;;;;;2.70;2.50;;;11.80;99.90;;;;;;7384126;19;20316;-72
2022/08/08 04:39:43;;;;;;;2.45;2.22;;;11.80;99.90;;;;;;7382065;19;20494;-72
2022/08/08 04:42:10;;;;;;;2.40;2.03;;;11.90;99.90;;;;;;7384854;19;20319;-72
2022/08/08 04:44:36;;;;;;;2.35;2.15;;;11.90;99.90;;;;;;7383578;19;20906;-72
2022/08/08 04:47:02;;;;;;;2.47;2.28;;;12.00;99.90;;;;;;7383609;19;20325;-74
2022/08/08 04:49:27;;;;;;;3.13;2.40;;;12.10;99.90;;;;;;7383272;19;20332;-73
2022/08/08 04:51:53;;;;;;;2.03;1.92;;;12.20;99.90;;;;;;7381620;19;20339;-73
2022/08/08 04:54:18;;;;;;;2.60;2.40;;;12.30;99.90;;;;;;7383351;19;20320;-73
2022/08/08 04:56:44;;;;;;;2.38;2.17;;;12.40;99.90;;;;;;7383313;19;20764;-74
2022/08/08 04:59:10;;;;;;;2.50;2.30;;;12.50;99.90;;;;;;7384989;19;20313;-73
2022/08/08 05:01:36;;;;;;;2.35;2.20;;;12.60;99.90;;;;;;7380643;19;20364;-73
2022/08/08 05:04:01;;;;;;;2.42;2.22;;;12.60;99.90;;;;;;7379883;19;20361;-73
2022/08/08 05:06:31;;;;;;;2.22;2.03;;;12.80;99.90;;;;;;7377363;19;20312;-73
2022/08/08 05:08:56;;;;;;;2.60;2.40;;;12.90;99.90;;;;;;7378535;19;20869;-73
2022/08/08 05:11:24;;;;;;;2.63;2.42;;;13.00;99.90;;;;;;7377744;19;21050;-73
2022/08/08 05:13:51;;;;;;;2.67;2.47;;;13.10;99.90;;;;;;7377829;19;21063;-73
2022/08/08 05:16:16;;;;;;;3.28;2.30;;;13.30;99.90;;;;;;7377963;19;20357;-73
2022/08/08 05:18:42;;;;;;;2.97;2.60;;;13.40;99.90;;;;;;7379666;19;20308;-73
2022/08/08 05:21:08;;;;;;;2.80;2.60;;;13.50;99.90;;;;;;7376946;19;20713;-73
2022/08/08 05:23:34;;;;;;;2.65;2.45;;;13.60;99.90;;;;;;7378905;19;20439;-73
2022/08/08 05:26:00;;;;;;;4.17;2.40;;;13.70;99.90;;;;;;7378644;19;20882;-73
2022/08/08 05:28:25;;;;;;;2.30;2.10;;;13.80;99.90;;;;;;7377954;19;20337;-73
2022/08/08 05:30:51;;;;;;;2.57;2.37;;;14.00;99.90;;;;;;7377960;19;21085;-73
2022/08/08 05:33:17;;;;;;;3.38;2.35;;;14.10;99.90;;;;;;7378017;19;20309;-73
2022/08/08 05:35:43;;;;;;;2.30;2.20;;;14.20;99.90;;;;;;7382833;19;20348;-73
2022/08/08 05:38:12;;;;;;;3.30;2.53;;;14.30;99.90;;;;;;7383371;19;20317;-73
2022/08/08 05:40:51;;;;;;;2.83;2.38;;;14.40;99.90;;;;;;7279058;19;2004564;-73
2022/08/08 05:43:27;;;;;;;2.75;2.50;;;14.50;99.90;;;;;;7382245;19;20312;-73
2022/08/08 05:45:58;;;;;;;3.22;2.88;;;14.70;99.90;;;;;;7381799;19;20401;-73
2022/08/08 05:48:24;;;;;;;2.83;2.60;;;14.80;99.90;;;;;;7383014;19;20325;-73
2022/08/08 05:50:49;;;;;;;4.35;2.72;;;14.90;99.90;;;;;;7382325;19;20360;-73
2022/08/08 05:53:24;;;;;;;4.05;2.97;;;15.10;99.90;;;;;;7382078;19;20337;-73
2022/08/08 05:55:51;;;;;;;3.33;3.00;;;15.20;99.90;;;;;;7279823;19;2004506;-73
2022/08/08 05:58:17;;;;;;;5.20;3.00;;;15.40;99.90;;;;;;7380433;19;20317;-73
2022/08/08 06:00:42;;;;;;;2.63;2.40;;;15.50;99.90;;;;;;7380333;19;20313;-73
2022/08/08 06:03:14;;;;;;;2.60;2.40;;;15.70;99.90;;;;;;7381081;19;20356;-74
2022/08/08 06:05:47;;;;;;;3.90;2.60;;;15.80;99.90;;;;;;7380842;19;20656;-73
2022/08/08 06:08:13;;;;;;;2.70;2.20;;;15.90;99.90;;;;;;7381321;19;20313;-73
2022/08/08 06:10:40;;;;;;;2.60;2.40;;;16.10;99.90;;;;;;7379539;19;20316;-74
2022/08/08 06:13:07;;;;;;;3.30;2.30;;;16.20;99.90;;;;;;7380276;19;20321;-73
2022/08/08 06:15:32;;;;;;;2.35;2.15;;;16.30;99.90;;;;;;7380231;19;20308;-73
2022/08/08 06:17:58;;;;;;;2.40;2.20;;;16.50;99.90;;;;;;7380824;19;21148;-73
2022/08/08 06:20:24;;;;;;;2.60;2.23;;;16.60;99.90;;;;;;7380323;19;20313;-74
2022/08/08 06:22:49;;;;;;;2.13;2.03;;;16.80;99.90;;;;;;7380627;19;20762;-73
2022/08/08 06:25:17;;;;;;;2.67;2.22;;;17.00;99.90;;;;;;7380080;19;20311;-73
2022/08/08 06:27:54;;;;;;;2.60;2.10;;;17.10;99.90;;;;;;7381493;19;20313;-73
2022/08/08 06:30:21;;;;;;;4.13;1.98;;;17.30;99.90;;;;;;7275999;19;2004600;-74
2022/08/08 06:32:55;;;;;;;2.85;2.28;;;17.40;99.90;;;;;;7378898;19;20347;-74
2022/08/08 06:35:23;;;;;;;2.88;2.30;;;17.50;99.90;;;;;;7379761;19;20309;-74
2022/08/08 06:37:57;;;;;;;2.00;1.90;;;17.80;99.90;;;;;;7379507;19;20389;-74
2022/08/08 06:40:30;;;;;;;2.70;2.40;;;18.00;99.90;;;;;;7377924;19;20313;-73
2022/08/08 06:42:56;;;;;;;2.80;1.83;;;18.20;99.90;;;;;;7379712;19;20921;-74
2022/08/08 06:45:29;;;;;;;2.05;1.85;;;18.40;99.90;;;;;;7377721;19;20312;-72
2022/08/08 06:47:54;;;;;;;3.07;1.90;;;18.60;99.90;;;;;;7381189;19;20340;-73
2022/08/08 06:50:20;;;;;;;2.78;1.92;;;18.70;99.90;;;;;;7378820;19;20339;-73
2022/08/08 06:52:45;;;;;;;3.57;1.90;;;18.90;99.90;;;;;;7380341;19;20861;-73
2022/08/08 06:55:11;;;;;;;1.92;1.83;;;19.10;99.90;;;;;;7380156;19;20363;-73
2022/08/08 06:57:37;;;;;;;1.70;1.60;;;19.20;99.90;;;;;;7378700;19;20297;-73
2022/08/08 07:00:05;;;;;;;1.98;1.77;;;19.30;99.90;;;;;;7378646;19;20344;-72
2022/08/08 07:02:32;;;;;;;2.10;1.52;;;19.30;99.90;;;;;;7379134;19;20345;-73
2022/08/08 07:05:05;;;;;;;1.98;1.70;;;19.50;99.90;;;;;;7377497;19;20926;-73
2022/08/08 07:08:01;;;;;;;1.83;1.70;;;19.70;99.90;;;;;;7380584;19;20337;-74
2022/08/08 07:10:37;;;;;;;3.40;1.85;;;20.00;99.90;;;;;;7275562;19;2004570;-73
2022/08/08 07:13:07;;;;;;;2.00;1.80;;;20.00;99.90;;;;;;7378068;19;20356;-73
2022/08/08 07:15:43;;;;;;;3.47;2.30;;;20.20;99.90;;;;;;7378898;19;20343;-73
2022/08/08 07:18:08;;;;;;;2.80;2.17;;;20.20;99.90;;;;;;7374293;19;20412;-73
2022/08/08 07:20:37;;;;;;;1.92;1.77;;;20.20;99.90;;;;;;7377941;19;20359;-73
2022/08/08 07:23:15;;;;;;;3.10;1.80;;;20.40;99.90;;;;;;7377010;19;20341;-73
2022/08/08 07:25:42;;;;;;;2.40;2.10;;;20.60;99.90;;;;;;7378067;19;20316;-73
2022/08/08 07:28:14;;;;;;;2.10;1.93;;;20.60;99.90;;;;;;7377853;19;20320;-73
2022/08/08 07:30:39;;;;;;;3.85;1.92;;;20.70;99.90;;;;;;7376578;19;20312;-73
2022/08/08 07:33:10;;;;;;;2.85;1.80;;;20.80;99.90;;;;;;7378288;19;20311;-73
2022/08/08 07:35:37;;;;;;;2.03;1.90;;;21.10;99.90;;;;;;7377745;19;20325;-73
2022/08/08 07:38:03;;;;;;;2.53;2.10;;;21.30;99.90;;;;;;7378074;19;20877;-73
2022/08/08 07:40:39;;;;;;;2.13;1.92;;;21.50;99.90;;;;;;7378945;19;20370;-73
2022/08/08 07:43:07;;;;;;;2.30;1.70;;;21.50;99.90;;;;;;7378286;19;20304;-73
2022/08/08 07:45:33;;;;;;;3.20;1.80;;;21.70;99.90;;;;;;7376141;19;20360;-73
2022/08/08 07:47:59;;;;;;;2.08;1.88;;;21.90;99.90;;;;;;7378677;19;20964;-73
2022/08/08 07:50:24;;;;;;;2.13;1.80;;;22.00;99.90;;;;;;7378221;19;20316;-73
2022/08/08 07:52:52;;;;;;;3.70;1.70;;;22.20;99.90;;;;;;7377685;19;20746;-74
2022/08/08 07:55:23;;;;;;;1.92;1.67;;;22.30;99.90;;;;;;7376458;19;20697;-73
2022/08/08 07:58:01;;;;;;;1.93;1.73;;;22.50;99.90;;;;;;7383681;19;20331;-73
2022/08/08 08:00:43;;;;;;;2.28;1.73;;;22.70;99.90;;;;;;7384774;19;20293;-73
2022/08/08 08:03:16;;;;;;;1.60;1.50;;;23.00;99.90;;;;;;7382791;19;20324;-73
2022/08/08 08:05:43;;;;;;;1.90;1.73;;;23.10;99.90;;;;;;7384224;19;20317;-73
2022/08/08 08:08:17;;;;;;;1.67;1.53;;;23.30;99.90;;;;;;7385747;19;20711;-73
2022/08/08 08:10:45;;;;;;;1.58;1.48;;;23.30;99.90;;;;;;7384669;19;20913;-73
2022/08/08 08:13:32;;;;;;;1.50;1.40;;;23.50;98.10;;;;;;7383628;19;20305;-75
2022/08/08 08:16:00;;;;;;;1.65;1.50;;;23.60;96.60;;;;;;7281349;19;2004394;-74
2022/08/08 08:18:28;;;;;;;1.90;1.52;;;23.70;99.30;;;;;;7384416;19;20344;-74
2022/08/08 08:20:53;;;;;;;1.75;1.38;;;23.90;95.50;;;;;;7385452;19;20336;-75
2022/08/08 08:23:19;;;;;;;3.88;1.70;;;24.20;96.70;;;;;;7382907;19;20857;-75
2022/08/08 08:25:45;;;;;;;2.55;1.50;;;24.30;95.10;;;;;;7384043;19;20860;-75
2022/08/08 08:28:12;;;;;;;1.35;1.25;;;24.50;94.30;;;;;;7383184;19;20324;-75
2022/08/08 08:30:38;;;;;;;1.30;1.20;;;24.70;94.00;;;;;;7383423;19;20348;-75
2022/08/08 08:33:03;;;;;;;2.53;1.40;;;24.80;91.60;;;;;;7384255;19;20972;-75
2022/08/08 08:35:29;;;;;;;1.50;1.40;;;25.00;91.40;;;;;;7382663;19;20323;-74
2022/08/08 08:37:56;;;;;;;3.58;1.33;;;25.20;91.20;;;;;;7383328;19;20368;-75
2022/08/08 08:40:23;;;;;;;2.92;1.23;;;25.30;90.30;;;;;;7383487;19;20337;-75
2022/08/08 08:42:48;;;;;;;1.83;1.10;;;25.50;89.20;;;;;;7384515;19;20350;-74
2022/08/08 08:45:15;;;;;;;4.10;1.20;;;25.70;86.60;;;;;;7383403;19;20293;-75
2022/08/08 08:47:42;;;;;;;1.10;1.10;;;25.60;82.10;;;;;;7384368;19;20316;-76
2022/08/08 08:50:08;;;;;;;1.95;1.40;;;25.50;79.00;;;;;;7383766;19;20311;-75
2022/08/08 08:52:34;;;;;;;1.20;1.10;;;25.70;85.50;;;;;;7383203;19;21089;-76
2022/08/08 08:55:00;;;;;;;1.00;1.00;;;25.70;81.90;;;;;;7384087;19;20341;-76
2022/08/08 08:57:26;;;;;;;1.38;1.27;;;25.90;79.80;;;;;;7383387;19;20320;-77
2022/08/08 08:59:52;;;;;;;1.03;1.00;;;26.10;78.60;;;;;;7384299;19;20344;-77
2022/08/08 09:02:20;;;;;;;1.30;1.20;;;26.30;78.00;;;;;;7383723;19;20364;-77
2022/08/08 09:04:46;;;;;;;1.00;1.00;;;26.50;75.50;;;;;;7382266;19;20434;-76
2022/08/08 09:07:18;;;;;;;2.92;1.15;;;26.60;78.00;;;;;;7383625;19;20329;-76
2022/08/08 09:09:52;;;;;;;1.77;1.20;;;26.80;75.40;;;;;;7381945;19;20344;-76
2022/08/08 09:12:22;;;;;;;1.23;1.13;;;26.80;71.70;;;;;;7281054;19;2004627;-76
2022/08/08 09:14:48;;;;;;;1.50;1.10;;;26.70;69.70;;;;;;7381421;19;20333;-77
2022/08/08 09:17:17;;;;;;;0.95;0.95;;;26.80;75.30;;;;;;7382425;19;21119;-76
2022/08/08 09:19:42;;;;;;;1.33;1.23;;;26.80;75.10;;;;;;7384242;19;20391;-77
2022/08/08 09:22:09;;;;;;;2.30;1.30;;;27.00;72.10;;;;;;7383137;19;20304;-76
2022/08/08 09:24:35;;;;;;;0.88;0.88;;;27.30;71.10;;;;;;7381515;19;20873;-76
2022/08/08 09:27:07;;;;;;;3.10;1.30;;;27.10;67.00;;;;;;7382497;19;20396;-76
2022/08/08 09:29:52;;;;;;;1.88;1.20;;;26.80;69.00;;;;;;7381111;19;20417;-76
2022/08/08 09:32:28;;;;;;;1.23;1.13;;;27.00;72.90;;;;;;7280367;19;2004373;-76
2022/08/08 09:34:54;;;;;;;1.40;1.30;;;27.10;68.60;;;;;;7379478;19;20348;-76
2022/08/08 09:37:25;;;;;;;1.30;1.20;;;27.30;71.20;;;;;;7381790;19;20324;-76
2022/08/08 09:40:04;;;;;;;1.40;1.10;;;27.30;68.00;;;;;;7381816;19;20357;-76
2022/08/08 09:42:35;;;;;;;2.45;1.13;;;27.40;65.50;;;;;;7382865;19;20344;-77
2022/08/08 09:45:11;;;;;;;1.02;1.02;;;27.60;68.40;;;;;;7381190;19;20410;-77
2022/08/08 09:47:41;;;;;;;2.23;1.13;;;27.90;69.80;;;;;;7381079;19;20963;-76
2022/08/08 09:50:17;;;;;;;1.30;1.20;;;27.90;66.90;;;;;;7381887;19;20408;-76
2022/08/08 09:52:47;;;;;;;1.10;1.00;;;28.20;66.70;;;;;;7379453;19;20324;-77
2022/08/08 09:55:13;;;;;;;1.30;1.20;;;28.40;64.00;;;;;;7379505;19;20414;-77
2022/08/08 09:57:39;;;;;;;1.20;1.10;;;28.30;67.20;;;;;;7377661;19;20304;-77
2022/08/08 10:00:09;;;;;;;2.00;1.30;;;28.30;64.60;;;;;;7377995;19;20344;-76
2022/08/08 10:02:48;;;;;;;2.17;1.35;;;28.60;65.90;;;;;;7379512;19;20852;-77
2022/08/08 10:05:16;;;;;;;1.17;1.08;;;28.90;63.50;;;;;;7374846;19;20341;-76
2022/08/08 10:07:53;;;;;;;2.70;1.40;;;28.70;59.80;;;;;;7380763;19;20315;-76
2022/08/08 10:10:40;;;;;;;3.35;1.40;;;28.90;63.30;;;;;;7272396;19;2004762;-75
2022/08/08 10:13:15;;;;;;;1.30;1.20;;;29.00;61.70;;;;;;7384228;19;20333;-75
2022/08/08 10:15:44;;;;;;;1.35;1.25;;;29.40;63.90;;;;;;7377685;19;20296;-76
2022/08/08 10:18:09;;;;;;;1.63;1.23;;;29.70;62.30;;;;;;7383926;19;20297;-76
2022/08/08 10:20:47;;;;;;;1.37;1.23;;;29.70;60.50;;;;;;7383200;19;20315;-76
2022/08/08 10:23:13;;;;;;;2.22;1.50;;;29.10;59.10;;;;;;7380356;19;20852;-76
2022/08/08 10:25:41;;;;;;;1.75;1.35;;;29.20;60.80;;;;;;7381368;19;20304;-76
2022/08/08 10:28:16;;;;;;;1.20;1.10;;;29.50;63.80;;;;;;7382929;19;20319;-76
2022/08/08 10:30:56;;;;;;;2.00;1.30;;;29.70;60.80;;;;;;7381167;19;20875;-75
2022/08/08 10:33:31;;;;;;;2.67;1.20;;;30.00;62.20;;;;;;7277264;19;2017302;-75
2022/08/08 10:36:02;;;;;;;1.45;1.27;;;30.70;61.70;;;;;;7378933;19;20869;-76
2022/08/08 10:38:33;;;;;;;1.35;1.25;;;30.70;55.90;;;;;;7381728;19;20312;-76
2022/08/08 10:41:02;;;;;;;1.40;1.30;;;31.00;59.00;;;;;;7381994;19;20348;-76
2022/08/08 10:43:37;;;;;;;2.42;1.35;;;31.00;55.30;;;;;;7380830;19;20352;-75
2022/08/08 10:46:02;;;;;;;1.48;1.38;;;31.80;57.00;;;;;;7385637;19;20457;-77
2022/08/08 10:48:34;;;;;;;1.40;1.30;;;31.60;51.40;;;;;;7381937;19;20397;-76
2022/08/08 10:51:10;;;;;;;1.25;1.02;;;31.00;52.20;;;;;;7381873;19;20878;-77
2022/08/08 10:53:36;;;;;;;1.27;1.17;;;31.50;53.50;;;;;;7380551;19;20341;-77
2022/08/08 10:56:02;;;;;;;1.30;1.20;;;31.20;52.70;;;;;;7379967;19;20359;-76
2022/08/08 10:58:27;;;;;;;1.33;1.10;;;31.00;53.40;;;;;;7380895;19;21185;-76
2022/08/08 11:00:54;;;;;;;2.65;1.20;;;31.00;53.00;;;;;;7378759;19;20834;-77
2022/08/08 11:03:19;;;;;;;1.98;1.10;;;30.90;51.80;;;;;;7379853;19;20333;-76
2022/08/08 11:05:49;;;;;;;1.10;1.00;;;31.00;53.10;;;;;;7380427;19;20330;-76
2022/08/08 11:08:27;;;;;;;1.20;1.10;;;31.00;53.50;;;;;;7378789;19;20327;-77
2022/08/08 11:11:05;;;;;;;1.40;1.30;;;31.60;53.70;;;;;;7277388;19;2004337;-77
2022/08/08 11:16:59;;;;;;;1.48;1.38;;;32.10;50.90;;;;;;7270086;19;2004473;-76
2022/08/08 11:19:25;;;;;;;1.30;1.17;;;31.60;53.20;;;;;;7377690;19;20790;-76
2022/08/08 11:21:51;;;;;;;1.20;1.10;;;31.40;52.30;;;;;;7379143;19;20433;-76
2022/08/08 11:24:16;;;;;;;2.85;1.00;;;31.10;51.40;;;;;;7378896;19;20352;-76
2022/08/08 11:26:42;;;;;;;1.40;1.30;;;31.50;53.50;;;;;;7379662;19;20371;-77
2022/08/08 11:29:08;;;;;;;1.83;1.48;;;31.60;49.30;;;;;;7380593;19;20308;-76
2022/08/08 11:31:46;;;;;;;3.60;1.40;;;31.40;48.10;;;;;;7380466;19;20300;-77
2022/08/08 11:34:11;;;;;;;3.10;1.27;;;31.30;47.90;;;;;;7284756;19;2004455;-77
2022/08/08 11:36:38;;;;;;;1.33;1.23;;;31.60;50.20;;;;;;7386116;19;20928;-76
2022/08/08 11:39:04;;;;;;;3.88;1.25;;;31.70;49.00;;;;;;7387282;19;20303;-76
2022/08/08 11:41:30;;;;;;;1.40;1.30;;;32.10;50.30;;;;;;7387745;19;20316;-77
2022/08/08 11:43:55;;;;;;;1.40;1.30;;;32.40;49.90;;;;;;7386706;19;20333;-76
2022/08/08 11:46:23;;;;;;;1.40;1.30;;;32.40;51.80;;;;;;7385693;19;20320;-77
2022/08/08 11:48:48;;;;;;;1.58;1.30;;;32.60;47.70;;;;;;7386021;19;20348;-77
2022/08/08 11:51:17;;;;;;;1.42;1.33;;;33.10;46.10;;;;;;7385685;19;20890;-77
2022/08/08 11:53:43;;;;;;;3.80;1.70;;;32.90;46.70;;;;;;7387233;19;20327;-77
2022/08/08 11:56:18;;;;;;;1.40;1.30;;;33.30;48.20;;;;;;7384676;19;20858;-76
2022/08/08 11:58:43;;;;;;;1.20;1.10;;;33.50;49.20;;;;;;7386700;19;20335;-77
2022/08/08 12:01:09;;;;;;;1.35;1.30;;;33.90;49.00;;;;;;7384447;19;20301;-76
2022/08/08 12:03:35;;;;;;;1.30;1.20;;;33.80;46.70;;;;;;7388047;19;20313;-76
2022/08/08 12:06:13;;;;;;;1.67;1.58;;;33.60;47.10;;;;;;7386003;19;20359;-76
2022/08/08 12:08:40;;;;;;;1.33;1.23;;;33.30;42.90;;;;;;7283316;19;2004753;-76
2022/08/08 12:11:14;;;;;;;1.17;1.15;;;33.40;47.50;;;;;;7385182;19;20371;-76
2022/08/08 12:13:39;;;;;;;1.30;1.20;;;33.40;45.70;;;;;;7282612;19;2004443;-76
2022/08/08 12:16:14;;;;;;;1.50;1.40;;;33.30;45.30;;;;;;7385476;19;20890;-76
2022/08/08 12:18:50;;;;;;;1.17;1.17;;;33.30;45.40;;;;;;7283095;19;2004942;-76
2022/08/08 12:21:25;;;;;;;1.23;1.20;;;33.70;46.80;;;;;;7385502;19;20312;-76
2022/08/08 12:24:04;;;;;;;1.58;1.23;;;34.20;44.50;;;;;;7386589;19;20336;-76
2022/08/08 12:26:40;;;;;;;1.40;1.30;;;34.40;44.00;;;;;;7387036;19;20317;-76
2022/08/08 12:29:25;;;;;;;1.60;1.30;;;34.30;44.60;;;;;;7385068;19;20325;-76
2022/08/08 12:32:04;;;;;;;1.50;1.40;;;33.80;44.30;;;;;;7284174;19;2004347;-76
2022/08/08 12:34:43;;;;;;;2.78;1.40;;;33.30;45.80;;;;;;7385385;19;20324;-76
2022/08/08 12:37:29;;;;;;;1.40;1.30;;;33.50;48.50;;;;;;7282053;19;2004544;-76
2022/08/08 12:39:56;;;;;;;1.07;1.07;;;34.00;47.50;;;;;;7387793;19;20336;-76
2022/08/08 12:42:21;;;;;;;1.40;1.30;;;34.00;42.30;;;;;;7382512;19;20375;-76
2022/08/08 12:44:47;;;;;;;1.80;1.30;;;34.10;43.80;;;;;;7384403;19;20684;-76
2022/08/08 12:47:15;;;;;;;1.80;1.30;;;34.80;44.30;;;;;;7385361;19;20341;-76
2022/08/08 12:49:43;;;;;;;1.35;1.20;;;35.10;44.60;;;;;;7384025;19;20316;-75
2022/08/08 12:52:17;;;;;;;4.63;1.90;;;35.40;45.80;;;;;;7384900;19;20312;-76
2022/08/08 12:54:43;;;;;;;2.10;1.50;;;35.60;41.60;;;;;;7385296;19;20735;-76
2022/08/08 12:57:21;;;;;;;7.30;2.97;;;35.40;38.40;;;;;;7382598;19;20397;-77
2022/08/08 12:59:50;;;;;;;2.30;1.40;;;35.30;44.10;;;;;;7383489;19;20324;-77
2022/08/08 13:02:24;;;;;;;14.65;8.65;;;35.10;42.50;;;;;;7385448;19;20328;-77
2022/08/08 13:04:50;;;;;;;3.07;2.27;;;34.90;43.60;;;;;;7385715;19;20321;-76
2022/08/08 13:07:16;;;;;;;11.20;5.88;;;34.70;44.10;;;;;;7384165;19;21172;-76
2022/08/08 13:10:02;;;;;;;7.37;4.40;;;34.80;43.30;;;;;;7383194;19;20324;-76
2022/08/08 13:12:38;;;;;;;1.47;1.33;;;34.90;46.00;;;;;;7385433;19;20345;-76
2022/08/08 13:15:06;;;;;;;7.43;4.38;;;34.90;42.90;;;;;;7384952;19;20968;-76
2022/08/08 13:17:32;;;;;;;1.20;1.10;;;34.70;41.90;;;;;;7382729;19;20317;-76
2022/08/08 13:19:58;;;;;;;1.27;1.27;;;34.50;42.20;;;;;;7384276;19;20744;-76
2022/08/08 13:22:23;;;;;;;1.35;1.25;;;34.80;43.80;;;;;;7384083;19;20305;-75